Αρχική σελίδα
METAR-TAF:

METAR-TAF

Αεροδρόμια :

Ραμπάτ, Μαρόκο

γεωγραφικό πλάτος: 34-03N, γεωγραφικό μήκος: 006-46W, υψόμετρο: 84 μ

Παρών καιρός

Η αναφορά έγινε 21 λεπτά πριν, στις 14:30 UTC
Άνεμος 4 kt από Δ/BΔ, μεταβλητός μεταξύ Δ και Β
Θερμοκρασία 17°C
Υγρασία 77%
Πίεση 1023 hPa
Ορατότητα: 5000 μ
Λίγα νέφη σε ύψος 1600 πόδια

METAR: GMME 101430Z 30004KT 260V350 5000 FEW016 17/13 Q1023 NOSIG

Χρόνος: 14:51 (14:51 UTC)

Πρόγνωση Καιρού

Η αναφορά έγινε 3 ώρες και 51 λεπτά πριν, στις 11:00 UTC
Η πρόγνωση ισχύει από τις 10 στις 12 UTC έως τις 11 στις 18 UTC
Άνεμος 11 kt από Δ
Ορατότητα: 8000 μ
Προσωρινά
από 10 στις 18 UTC έως τις 11 στις 07 UTC
Άνεμος 2 kt από μεταβλητές κατευθύνσεις
Ορατότητα: 3000 μ
Αρκετά νέφη σε ύψος 800 πόδια
Αχλής

TAF: GMME 101100Z 1012/1118 28011KT 8000 NSC TEMPO 1018/1107 VRB02KT 3000 BR BKN008

Μετεωρολογικές αναφορές και προγνώσεις για περισσότερα από 4000 αεροδρόμια (δελτία METAR και TAF).

Οι διαθέσιμοι σταθμοί απεικονίζονται στο χάρτη με κίτρινες και κόκκινες κουκκίδες.

Μετακινήστε το ποντίκι πάνω από τις κουκκίδες για να δείτε το όνομα του σταθμού.

Στη συνέχεια, κάντε κλικ για να δείτε τις μετεωρολογικές αναφορές και τις προγνώσεις καιρού.

Για να αλλάξετε το χάρτη: κάντε κλικ στα πράσινα κουμπιά με τον μαύρο σταυρό για να ζουμάρετε, στο πράσινο κουμπί με την παύλα για να αφαιρέσετε το ζουμ ή στα πράσινα βέλη για να αντιπαραβάλλετε χάρτες.


METAR-TAF: